Billings Logan International Airport Billings US
ICAO: KBIL
IATA: BIL
Category: Large
Scheduled Services: Yes

Elevation: 3652 ft
TransAlt. 18000 ft.

Airport Communications:
APP/DEP:119.2
ATIS:126.3
CLNC DEL:121.9
GND:121.9
GREAT FALLS RDO:122.55
TWR:124.2
UNICOM:122.95

KBIL Zoom In..

If you have problems with the map follow the link
https://www.worldairports.se/pages/airport.php?
ICAO=KBIL

Runways:

(A) RW 07 length 5503 ft width 75 ft
---- / hdg 70

(B) RW 10L length 10521 ft width 150 ft
ILS 110.30 / hdg 98

(C) RW 10R length 3800 ft width 75 ft
---- / hdg 98

(D) RW 25 length 5503 ft width 75 ft
---- / hdg 250

(E) RW 28L length 3800 ft width 75 ft
---- / hdg 278

(F) RW 28R length 10521 ft width 150 ft
ILS 111.50 / hdg 278

Location; KBIL
Day. 18 / Time. 01.53 Zulu
* Altimeter: 30.26
* Temperature: 1/° c. 33.8°f.
* Wind from: 110° Speed 07 kn.
Dewpoint: V2° c.
Visibility: 2 Statute Miles.
Clouds: Overcast 2500 ft.
Conditions: Light Snow.Conditions: Mist.

KBIL 180153Z 11007KT 2SM -SN BR OVC025 M16/M18 A3026 RMK AO2 SLP328 VIS 1 1/2V2 1/2 P0001 T11611183


Wind From 110°
Speed 07 kn.

 
 
jpsmedia.com for Web Design worldairports.se 2019   terms of use